Date,TemperatureHighF,TemperatureAvgF,TemperatureLowF,DewpointHighF,DewpointAvgF,DewpointLowF,HumidityHigh,HumidityAvg,HumidityLow,PressureMaxIn,PressureMinIn,WindSpeedMaxMPH,WindSpeedAvgMPH,GustSpeedMaxMPH,PrecipitationSumIn
2013-3-1,42.0,39.1,38.0,39.0,34.4,32.0,95,84,73,30.37,30.32,8,4,16,0.01
2013-3-2,41.0,38.1,36.0,34.0,32.0,31.0,84,79,72,30.36,30.27,6,2,12,0.01
2013-3-3,44.0,40.8,38.0,41.0,36.3,32.0,96,84,70,30.27,30.21,4,2,9,0.02
2013-3-4,53.0,41.0,32.0,38.0,33.0,29.0,88,74,54,30.22,29.88,6,3,14,0.01
2013-3-5,63.0,47.3,35.0,41.0,35.2,30.0,84,65,38,29.88,29.69,6,2,12,0.00
2013-3-6,60.0,50.5,41.0,42.0,38.3,35.0,80,64,46,29.69,29.57,3,1,7,0.00
2013-3-7,52.0,48.3,45.0,42.0,39.2,37.0,86,71,60,29.57,29.47,6,4,13,0.02
2013-3-8,55.0,48.1,44.0,48.0,43.8,41.0,92,85,75,29.51,29.48,7,4,13,0.04
2013-3-9,43.0,40.1,35.0,41.0,39.0,34.0,96,95,92,29.55,29.44,5,3,12,0.97
2013-3-10,35.0,32.8,31.0,34.0,29.3,24.0,96,87,76,29.76,29.55,9,6,19,0.20
2013-3-11,31.0,29.5,28.0,26.0,23.6,22.0,85,78,73,29.81,29.76,11,8,26,0.01
2013-3-12,35.0,29.5,25.0,23.0,19.4,15.0,82,67,46,29.80,29.73,12,8,25,0.00
2013-3-13,41.0,32.8,24.0,35.0,27.2,20.0,92,80,61,29.82,29.68,7,3,16,0.02
2013-3-14,38.0,33.9,29.0,30.0,26.3,22.0,92,74,52,29.99,29.80,7,3,13,0.02
2013-3-15,38.0,33.9,29.0,34.0,29.9,24.0,94,85,76,29.98,29.80,9,5,19,0.13
2013-3-16,46.0,41.1,37.0,36.0,32.6,26.0,90,72,51,29.80,29.54,9,6,22,0.09
2013-3-17,48.0,42.9,39.0,41.0,37.5,29.0,91,81,64,29.54,29.26,6,4,17,0.02
2013-3-18,47.0,42.1,39.0,40.0,38.1,35.0,94,86,66,29.35,29.23,9,3,18,0.15
2013-3-19,43.0,38.4,34.0,39.0,35.3,32.0,93,88,82,29.58,29.34,5,3,13,0.01
2013-3-20,37.0,34.8,33.0,33.0,29.5,26.0,87,81,75,29.98,29.58,9,6,20,0.01
2013-3-21,42.0,35.1,29.0,32.0,28.8,25.0,88,78,63,30.14,29.97,6,1,10,0.00
2013-3-22,40.0,33.4,28.0,30.0,26.8,24.0,91,77,63,30.14,29.97,11,7,24,0.00
2013-3-23,36.0,32.8,29.0,25.0,20.6,13.0,75,61,46,30.03,29.96,14,10,27,0.00
2013-3-24,37.0,31.2,26.0,14.0,8.2,3.0,53,39,25,30.04,29.98,13,10,30,0.00
2013-3-25,39.0,33.0,28.0,17.0,15.7,14.0,60,49,37,30.05,29.95,12,9,26,0.00
2013-3-26,42.0,34.0,27.0,20.0,17.4,14.0,69,51,36,30.00,29.91,11,7,24,0.00
2013-3-27,44.0,34.9,27.0,21.0,18.9,16.0,75,54,32,29.96,29.84,8,5,19,0.00
2013-3-28,38.0,33.2,28.0,27.0,22.7,17.0,85,65,51,29.89,29.83,9,5,20,0.00
2013-3-29,38.0,31.6,26.0,31.0,27.8,24.0,93,86,70,29.86,29.80,5,1,12,0.00
2013-3-30,40.0,33.4,28.0,32.0,28.5,26.0,94,83,60,29.92,29.78,8,3,17,0.00
2013-3-31,41.0,35.1,29.0,29.0,26.5,-99.9,90,74,52,29.97,29.92,7,3,15,0.00